Time;durP1;ratioP1;P1;durP2;ratioP2;P2;SDS_P1;SDS_P2;PMS_P1;PMS_P2;Temp;Humidity;BMP_temperature;BMP_pressure;BME280_temperature;BME280_humidity;BME280_pressure;Samples;Min_cycle;Max_cycle;Signal;HPM_P1;HPM_P2
2024/04/16 00:00:33;;;;;;;;;;;;;;;8.71;72.03;99426.09;4366913;27;19931;-68
2024/04/16 00:02:39;;;;;;;;;;;;;;;8.70;72.00;99434.38;4366636;27;20370;-68
2024/04/16 00:04:40;;;;;;;;;;;;;;;8.68;71.80;99445.34;4325614;27;19932;-68
2024/04/16 00:06:44;;;;;;;;;;;;;;;8.65;72.23;99424.19;4366781;27;19931;-68
2024/04/16 00:08:48;;;;;;;;;;;;;;;8.62;71.76;99421.91;4366403;27;20028;-68
2024/04/16 00:10:52;;;;;;;;;;;;;;;8.61;71.74;99420.25;4366033;27;19943;-68
2024/04/16 00:12:53;;;;;;;;;;;;;;;8.56;71.45;99418.16;4364612;27;20464;-68
2024/04/16 00:15:17;;;;;;;;;;;;;;;8.54;71.72;99425.59;4352110;27;19960;-68
2024/04/16 00:17:18;;;;;;;;;;;;;;;8.53;71.58;99423.91;4336998;27;19944;-68
2024/04/16 00:19:25;;;;;;;;;;;;;;;8.50;71.92;99421.63;4337123;27;19935;-68
2024/04/16 00:21:26;;;;;;;;;;;;;;;8.47;72.06;99422.00;4367295;27;19931;-68
2024/04/16 00:23:29;;;;;;;;;;;;;;;8.46;71.63;99425.72;4321577;27;19932;-68
2024/04/16 00:25:30;;;;;;;;;;;;;;;8.43;71.78;99413.50;4365530;27;19942;-68
2024/04/16 00:27:31;;;;;;;;;;;;;;;8.43;71.96;99431.47;4337354;27;19935;-68
2024/04/16 00:29:35;;;;;;;;;;;;;;;8.41;71.68;99422.75;4366183;27;19931;-68
2024/04/16 00:31:36;;;;;;;;;;;;;;;8.39;71.93;99416.75;4365576;27;19935;-69
2024/04/16 00:33:40;;;;;;;;;;;;;;;8.37;71.51;99418.78;4366348;27;20280;-68
2024/04/16 00:35:43;;;;;;;;;;;;;;;8.37;71.57;99429.53;4335695;27;19943;-68
2024/04/16 00:37:47;;;;;;;;;;;;;;;8.35;71.60;99415.47;4366661;27;19942;-68
2024/04/16 00:39:48;;;;;;;;;;;;;;;8.33;71.68;99417.53;4366043;27;19938;-68
2024/04/16 00:41:51;;;;;;;;;;;;;;;8.27;71.65;99411.06;4365819;27;19931;-68
2024/04/16 00:43:56;;;;;;;;;;;;;;;8.30;71.52;99454.53;4366661;27;20001;-68
2024/04/16 00:46:00;;;;;;;;;;;;;;;8.29;71.13;99420.59;4365921;27;19935;-68
2024/04/16 00:48:01;;;;;;;;;;;;;;;8.28;71.12;99416.25;4364282;27;19955;-68
2024/04/16 00:50:08;;;;;;;;;;;;;;;8.28;71.16;99421.63;4366270;27;19966;-68
2024/04/16 00:52:13;;;;;;;;;;;;;;;8.27;71.24;99419.13;4366924;27;20001;-68
2024/04/16 00:54:17;;;;;;;;;;;;;;;8.26;71.04;99428.22;4366632;27;19942;-68
2024/04/16 00:56:18;;;;;;;;;;;;;;;8.26;70.95;99431.75;4365769;27;19931;-68
2024/04/16 00:58:22;;;;;;;;;;;;;;;8.25;70.91;99431.94;4366286;27;19938;-68
2024/04/16 01:00:23;;;;;;;;;;;;;;;8.24;70.96;99439.16;4363846;27;19931;-68
2024/04/16 01:02:27;;;;;;;;;;;;;;;8.24;70.82;99435.66;4365946;27;19931;-68
2024/04/16 01:04:28;;;;;;;;;;;;;;;8.25;70.72;99445.41;4365509;27;19938;-68
2024/04/16 01:06:31;;;;;;;;;;;;;;;8.23;70.99;99431.31;4366895;27;19939;-68
2024/04/16 01:08:35;;;;;;;;;;;;;;;8.22;70.74;99426.97;4366918;27;19935;-68
2024/04/16 01:10:40;;;;;;;;;;;;;;;8.19;70.78;99428.16;4367331;27;19937;-68
2024/04/16 01:12:41;;;;;;;;;;;;;;;8.20;70.65;99429.84;4366101;27;19933;-68
2024/04/16 01:14:44;;;;;;;;;;;;;;;8.19;70.30;99427.34;4365781;27;19931;-68
2024/04/16 01:16:45;;;;;;;;;;;;;;;8.19;70.29;99438.91;4362367;27;19938;-68
2024/04/16 01:18:49;;;;;;;;;;;;;;;8.18;70.09;99439.97;4365723;27;19931;-68
2024/04/16 01:20:50;;;;;;;;;;;;;;;8.18;69.68;99447.19;4365694;27;19931;-68
2024/04/16 01:22:56;;;;;;;;;;;;;;;8.17;69.35;99432.09;4365675;27;20269;-68
2024/04/16 01:24:57;;;;;;;;;;;;;;;8.16;69.85;99428.56;4334154;27;20002;-68
2024/04/16 01:27:01;;;;;;;;;;;;;;;8.15;69.33;99434.97;4368359;27;19931;-68
2024/04/16 01:29:02;;;;;;;;;;;;;;;8.14;69.46;99438.69;4368632;27;19938;-68
2024/04/16 01:31:06;;;;;;;;;;;;;;;8.12;69.63;99440.75;4364963;27;20285;-68
2024/04/16 01:33:08;;;;;;;;;;;;;;;8.10;69.27;99451.69;4365134;27;19938;-68
2024/04/16 01:35:12;;;;;;;;;;;;;;;8.09;69.24;99438.44;4365363;27;19931;-68
2024/04/16 01:37:13;;;;;;;;;;;;;;;8.06;68.88;99438.81;4364473;27;20320;-68
2024/04/16 01:39:19;;;;;;;;;;;;;;;8.05;69.15;99450.59;4365351;27;19931;-68
2024/04/16 01:41:20;;;;;;;;;;;;;;;8.03;69.16;99434.66;4365246;27;19938;-69
2024/04/16 01:43:23;;;;;;;;;;;;;;;8.02;69.00;99442.91;4365976;27;19931;-68
2024/04/16 01:45:24;;;;;;;;;;;;;;;8.00;69.44;99445.78;4366229;27;20284;-68
2024/04/16 01:47:28;;;;;;;;;;;;;;;7.98;69.17;99447.84;4364574;27;19931;-68
2024/04/16 01:49:29;;;;;;;;;;;;;;;7.96;69.55;99431.06;4364820;27;19938;-69
2024/04/16 01:51:32;;;;;;;;;;;;;;;7.94;69.38;99451.94;4367669;27;19931;-68
2024/04/16 01:53:33;;;;;;;;;;;;;;;7.93;69.14;99452.94;4366426;27;19931;-68
2024/04/16 01:55:40;;;;;;;;;;;;;;;7.89;69.33;99452.50;4365997;27;20368;-68
2024/04/16 01:57:40;;;;;;;;;;;;;;;7.88;68.72;99441.94;4365535;27;19931;-68
2024/04/16 01:59:46;;;;;;;;;;;;;;;7.87;69.18;99443.81;4335522;27;19943;-68
2024/04/16 02:01:47;;;;;;;;;;;;;;;7.85;68.40;99439.63;4365410;27;19938;-68
2024/04/16 02:03:51;;;;;;;;;;;;;;;7.85;68.51;99450.38;4365460;27;19932;-68
2024/04/16 02:05:53;;;;;;;;;;;;;;;7.83;69.10;99460.50;4336420;27;19931;-68
2024/04/16 02:07:57;;;;;;;;;;;;;;;7.81;68.54;99449.94;4364987;27;19942;-68
2024/04/16 02:09:58;;;;;;;;;;;;;;;7.80;68.85;99448.25;4365560;27;19943;-68
2024/04/16 02:12:04;;;;;;;;;;;;;;;7.78;68.62;99444.94;4365525;27;20542;-68
2024/04/16 02:14:05;;;;;;;;;;;;;;;7.76;69.08;99442.44;4366278;27;20370;-69
2024/04/16 02:16:09;;;;;;;;;;;;;;;7.75;68.86;99450.69;4363736;27;20001;-68
2024/04/16 02:18:11;;;;;;;;;;;;;;;7.72;68.79;99443.84;4364752;27;19942;-68
2024/04/16 02:20:15;;;;;;;;;;;;;;;7.71;68.91;99444.88;4364908;27;19931;-68
2024/04/16 02:22:16;;;;;;;;;;;;;;;7.71;69.00;99452.09;4364661;27;19931;-68
2024/04/16 02:24:21;;;;;;;;;;;;;;;7.70;68.64;99461.19;4364977;27;19941;-68
2024/04/16 02:26:22;;;;;;;;;;;;;;;7.69;68.58;99449.59;4366233;27;19967;-68
2024/04/16 02:28:28;;;;;;;;;;;;;;;7.68;68.29;99444.41;4367188;27;20366;-68
2024/04/16 02:30:30;;;;;;;;;;;;;;;7.66;68.73;99463.41;4365734;27;19935;-68
2024/04/16 02:32:34;;;;;;;;;;;;;;;7.65;68.22;99455.53;4334353;27;20293;-68
2024/04/16 02:34:35;;;;;;;;;;;;;;;7.64;68.44;99459.25;4365359;27;19938;-69
2024/04/16 02:36:39;;;;;;;;;;;;;;;7.63;68.28;99461.09;4365445;27;19931;-68
2024/04/16 02:38:39;;;;;;;;;;;;;;;7.61;68.29;99452.41;4367685;27;19931;-68
2024/04/16 02:40:44;;;;;;;;;;;;;;;7.60;67.94;99463.34;4366986;27;20002;-68
2024/04/16 02:42:45;;;;;;;;;;;;;;;7.57;68.21;99467.25;4364561;27;19954;-69
2024/04/16 02:44:52;;;;;;;;;;;;;;;7.54;67.96;99456.88;4362129;27;20300;-69
2024/04/16 02:46:53;;;;;;;;;;;;;;;7.52;67.94;99454.38;4364397;27;19938;-69
2024/04/16 02:48:57;;;;;;;;;;;;;;;7.51;68.13;99462.63;4364937;27;20369;-68
2024/04/16 02:50:58;;;;;;;;;;;;;;;7.49;68.48;99449.41;4350192;27;19975;-68
2024/04/16 02:53:02;;;;;;;;;;;;;;;7.46;69.08;99452.44;4364356;27;19939;-68
2024/04/16 02:55:03;;;;;;;;;;;;;;;7.45;68.95;99450.78;4365303;27;20444;-69
2024/04/16 02:57:07;;;;;;;;;;;;;;;7.43;69.00;99441.22;4364536;27;19946;-68
2024/04/16 02:59:08;;;;;;;;;;;;;;;7.40;69.11;99437.09;4365949;27;20003;-68
2024/04/16 03:01:15;;;;;;;;;;;;;;;7.38;68.73;99445.34;4365342;27;20254;-68
2024/04/16 03:03:16;;;;;;;;;;;;;;;7.35;69.25;99448.41;4368190;27;20160;-68
2024/04/16 03:05:19;;;;;;;;;;;;;;;7.33;69.58;99436.16;4365857;27;19931;-68
2024/04/16 03:07:20;;;;;;;;;;;;;;;7.28;69.50;99431.34;4363986;27;20041;-68
2024/04/16 03:09:24;;;;;;;;;;;;;;;7.24;69.48;99435.44;4370062;27;20232;-68
2024/04/16 03:11:25;;;;;;;;;;;;;;;7.22;69.82;99440.16;4366228;27;19931;-68
2024/04/16 03:13:29;;;;;;;;;;;;;;;7.19;69.96;99435.16;4350754;27;19931;-68
2024/04/16 03:15:30;;;;;;;;;;;;;;;7.15;69.55;99433.88;4363236;27;19991;-68
2024/04/16 03:17:37;;;;;;;;;;;;;;;7.07;69.59;99428.59;4365459;27;19931;-68
2024/04/16 03:19:38;;;;;;;;;;;;;;;7.07;69.75;99442.88;4364664;27;19955;-68
2024/04/16 03:21:43;;;;;;;;;;;;;;;7.03;70.22;99442.38;4365377;27;19939;-68
2024/04/16 03:23:45;;;;;;;;;;;;;;;7.00;69.92;99434.72;4364724;27;20367;-68
2024/04/16 03:25:48;;;;;;;;;;;;;;;6.97;69.95;99428.88;4365257;27;20397;-68
2024/04/16 03:27:49;;;;;;;;;;;;;;;6.94;70.03;99435.44;4364483;27;19938;-68
2024/04/16 03:29:53;;;;;;;;;;;;;;;6.91;70.12;99425.09;4365120;27;19931;-68
2024/04/16 03:31:54;;;;;;;;;;;;;;;6.89;70.51;99426.31;4332936;27;19931;-68
2024/04/16 03:34:00;;;;;;;;;;;;;;;6.87;70.53;99422.97;4365213;27;19938;-68
2024/04/16 03:36:03;;;;;;;;;;;;;;;6.85;70.46;99428.53;4362288;27;19931;-68
2024/04/16 03:38:06;;;;;;;;;;;;;;;6.82;70.66;99429.72;4364051;27;19931;-68
2024/04/16 03:40:10;;;;;;;;;;;;;;;6.81;70.46;99432.59;4364755;27;20342;-68
2024/04/16 03:42:14;;;;;;;;;;;;;;;6.79;70.30;99434.63;4364880;27;19932;-68
2024/04/16 03:44:15;;;;;;;;;;;;;;;6.77;70.87;99432.13;4362804;27;20269;-68
2024/04/16 03:46:19;;;;;;;;;;;;;;;6.76;70.94;99443.06;4363426;27;20346;-68
2024/04/16 03:48:20;;;;;;;;;;;;;;;6.75;71.12;99426.09;4362105;27;19997;-68
2024/04/16 03:50:26;;;;;;;;;;;;;;;6.73;71.15;99422.78;4364511;27;20001;-68
2024/04/16 03:52:29;;;;;;;;;;;;;;;6.72;71.55;99433.69;4363770;27;19947;-68
2024/04/16 03:54:33;;;;;;;;;;;;;;;6.71;71.61;99432.00;4363965;27;19943;-68
2024/04/16 03:56:34;;;;;;;;;;;;;;;6.71;71.49;99453.47;4365172;27;19943;-68
2024/04/16 03:58:43;;;;;;;;;;;;;;;6.69;71.58;99432.19;4363975;27;19931;-68
2024/04/16 04:01:03;;;;;;;;;;;;;;;6.68;71.73;99439.44;4322400;27;19932;-68
2024/04/16 04:03:04;;;;;;;;;;;;;;;6.67;71.55;99436.94;4364445;27;19938;-68
2024/04/16 04:05:08;;;;;;;;;;;;;;;6.67;71.86;99442.28;4361284;27;20001;-68
2024/04/16 04:07:11;;;;;;;;;;;;;;;6.66;72.03;99438.78;4363228;27;19931;-68
2024/04/16 04:09:15;;;;;;;;;;;;;;;6.65;71.99;99434.44;4361998;27;20258;-68
2024/04/16 04:11:16;;;;;;;;;;;;;;;6.64;72.24;99432.75;4365653;27;19942;-68
2024/04/16 04:13:19;;;;;;;;;;;;;;;6.65;72.40;99438.97;4334153;27;19932;-68
2024/04/16 04:15:20;;;;;;;;;;;;;;;6.66;72.48;99444.16;4361148;27;19931;-68
2024/04/16 04:17:24;;;;;;;;;;;;;;;6.66;72.86;99437.94;4363259;27;20266;-68
2024/04/16 04:19:25;;;;;;;;;;;;;;;6.65;72.66;99445.16;4361216;27;19931;-68
2024/04/16 04:21:29;;;;;;;;;;;;;;;6.66;72.51;99435.25;4363488;27;20088;-69
2024/04/16 04:23:32;;;;;;;;;;;;;;;6.66;72.38;99432.56;4362654;27;19937;-70
2024/04/16 04:25:36;;;;;;;;;;;;;;;6.67;72.58;99442.28;4361178;27;19931;-70
2024/04/16 04:27:38;;;;;;;;;;;;;;;6.68;72.58;99435.91;4344540;27;20285;-70
2024/04/16 04:29:42;;;;;;;;;;;;;;;6.67;72.99;99445.81;4364124;27;19939;-70
2024/04/16 04:31:43;;;;;;;;;;;;;;;6.67;73.16;99448.47;4363188;27;19937;-70
2024/04/16 04:33:46;;;;;;;;;;;;;;;6.68;73.37;99465.44;4362688;27;19943;-70
2024/04/16 04:35:47;;;;;;;;;;;;;;;6.67;72.91;99443.13;4332482;27;20011;-70
2024/04/16 04:37:51;;;;;;;;;;;;;;;6.68;73.23;99441.28;4362399;27;19931;-70
2024/04/16 04:39:54;;;;;;;;;;;;;;;6.68;72.90;99439.44;4334247;27;19976;-70
2024/04/16 04:41:58;;;;;;;;;;;;;;;6.69;73.45;99442.94;4364400;27;20001;-70
2024/04/16 04:44:00;;;;;;;;;;;;;;;6.69;73.63;99434.88;4365504;27;19935;-70
2024/04/16 04:46:04;;;;;;;;;;;;;;;6.69;73.52;99440.25;4365224;27;20062;-70
2024/04/16 04:48:05;;;;;;;;;;;;;;;6.71;73.63;99435.56;4366155;27;19931;-70
2024/04/16 04:50:09;;;;;;;;;;;;;;;6.71;73.73;99432.88;4363698;27;19931;-70
2024/04/16 04:52:10;;;;;;;;;;;;;;;6.71;73.43;99432.88;4365408;27;19931;-70
2024/04/16 04:54:15;;;;;;;;;;;;;;;6.72;73.59;99431.84;4335631;27;20394;-71
2024/04/16 04:56:19;;;;;;;;;;;;;;;6.73;73.38;99441.56;4365499;27;20269;-70
2024/04/16 04:58:23;;;;;;;;;;;;;;;6.74;73.39;99437.00;4365323;27;20273;-70
2024/04/16 05:00:24;;;;;;;;;;;;;;;6.76;73.72;99440.38;4366057;27;20277;-70
2024/04/16 05:02:27;;;;;;;;;;;;;;;6.76;73.93;99438.50;4365014;27;19938;-70
2024/04/16 05:04:28;;;;;;;;;;;;;;;6.77;73.78;99442.00;4365484;27;19931;-70
2024/04/16 05:06:32;;;;;;;;;;;;;;;6.78;74.02;99449.88;4365157;27;19931;-70
2024/04/16 05:08:34;;;;;;;;;;;;;;;6.79;74.68;99456.94;4365383;27;20367;-70
2024/04/16 05:10:37;;;;;;;;;;;;;;;6.81;74.73;99462.13;4364526;27;20003;-71
2024/04/16 05:12:41;;;;;;;;;;;;;;;6.83;75.08;99452.00;4364634;27;19931;-70
2024/04/16 05:14:45;;;;;;;;;;;;;;;6.84;76.13;99448.31;4363984;27;20355;-70
2024/04/16 05:16:46;;;;;;;;;;;;;;;6.85;76.96;99455.38;4364138;27;20360;-70
2024/04/16 05:18:49;;;;;;;;;;;;;;;6.85;77.38;99455.38;4364513;27;19930;-70
2024/04/16 05:20:50;;;;;;;;;;;;;;;6.85;77.58;99453.50;4337114;27;20382;-70
2024/04/16 05:22:54;;;;;;;;;;;;;;;6.85;77.71;99445.47;4364018;27;19938;-70
2024/04/16 05:24:55;;;;;;;;;;;;;;;6.84;78.34;99442.97;4364015;27;19931;-70
2024/04/16 05:26:59;;;;;;;;;;;;;;;6.84;78.71;99446.47;4364791;27;20469;-70
2024/04/16 05:29:03;;;;;;;;;;;;;;;6.82;79.09;99440.47;4364027;27;19931;-70
2024/04/16 05:31:07;;;;;;;;;;;;;;;6.83;78.89;99443.97;4366121;27;20252;-70
2024/04/16 05:33:08;;;;;;;;;;;;;;;6.82;79.26;99442.31;4364389;27;19970;-70
2024/04/16 05:35:12;;;;;;;;;;;;;;;6.81;79.16;99430.72;4365651;27;19939;-70
2024/04/16 05:37:13;;;;;;;;;;;;;;;6.81;79.41;99425.38;4364902;27;19962;-70
2024/04/16 05:39:17;;;;;;;;;;;;;;;6.82;79.79;99426.22;4364138;27;20001;-69
2024/04/16 05:41:18;;;;;;;;;;;;;;;6.82;79.68;99434.28;4336670;27;19935;-70
2024/04/16 05:43:22;;;;;;;;;;;;;;;6.81;79.89;99425.38;4363552;27;19992;-70
2024/04/16 05:45:25;;;;;;;;;;;;;;;6.82;79.79;99435.09;4363777;27;19938;-70
2024/04/16 05:47:29;;;;;;;;;;;;;;;6.81;80.04;99430.72;4364201;27;19939;-70
2024/04/16 05:49:30;;;;;;;;;;;;;;;6.83;79.97;99439.44;4364028;27;20005;-70
2024/04/16 05:51:34;;;;;;;;;;;;;;;6.84;80.52;99435.72;4363890;27;19931;-70
2024/04/16 05:53:35;;;;;;;;;;;;;;;6.85;80.25;99433.91;4365549;27;20258;-70
2024/04/16 05:55:39;;;;;;;;;;;;;;;6.86;79.89;99432.88;4364151;27;19978;-71
2024/04/16 05:57:40;;;;;;;;;;;;;;;6.88;80.62;99435.34;4363957;27;20012;-70
2024/04/16 05:59:44;;;;;;;;;;;;;;;6.91;80.52;99426.94;4363198;27;19931;-70
2024/04/16 06:01:47;;;;;;;;;;;;;;;6.93;80.79;99424.91;4363988;27;19938;-70
2024/04/16 06:03:51;;;;;;;;;;;;;;;6.94;81.01;99423.88;4363378;27;19939;-70
2024/04/16 06:05:52;;;;;;;;;;;;;;;6.94;80.30;99419.34;4360938;27;20005;-70
2024/04/16 06:07:56;;;;;;;;;;;;;;;6.95;79.99;99422.88;4363207;27;19938;-70
2024/04/16 06:09:57;;;;;;;;;;;;;;;6.96;80.20;99419.16;4329292;27;19932;-70
2024/04/16 06:12:01;;;;;;;;;;;;;;;6.98;80.27;99423.31;4362547;27;20522;-69
2024/04/16 06:14:01;;;;;;;;;;;;;;;6.98;80.54;99425.19;4347563;27;20436;-70
2024/04/16 06:16:05;;;;;;;;;;;;;;;7.00;80.80;99428.50;4364388;27;19931;-68
2024/04/16 06:18:12;;;;;;;;;;;;;;;7.00;81.36;99429.34;4364495;27;19931;-69
2024/04/16 14:46:06;;;;;;;;;;;;;;;10.08;59.78;99536.81;4391898;26;20356;-69
2024/04/16 14:48:07;;;;;;;;;;;;;;;10.09;59.87;99543.88;4402782;26;19930;-69
2024/04/16 14:50:12;;;;;;;;;;;;;;;10.09;59.64;99539.31;4414599;26;20363;-68
2024/04/16 14:52:13;;;;;;;;;;;;;;;10.08;59.86;99537.66;4406718;26;20426;-69
2024/04/16 14:54:17;;;;;;;;;;;;;;;10.10;59.91;99534.75;4395704;26;19945;-68
2024/04/16 14:56:18;;;;;;;;;;;;;;;10.10;59.96;99534.75;4386869;26;19930;-70
2024/04/16 14:58:21;;;;;;;;;;;;;;;10.11;60.07;99541.81;4379009;27;20000;-69
2024/04/16 15:00:22;;;;;;;;;;;;;;;10.12;59.89;99534.53;4376290;26;19930;-69
2024/04/16 15:02:26;;;;;;;;;;;;;;;10.13;59.82;99534.34;4377002;27;19937;-69
2024/04/16 15:04:30;;;;;;;;;;;;;;;10.12;59.69;99535.38;4380289;26;20023;-69
2024/04/16 15:06:31;;;;;;;;;;;;;;;10.14;59.63;99535.16;4377599;26;19946;-68
2024/04/16 15:08:35;;;;;;;;;;;;;;;10.15;59.63;99534.13;4378274;26;19931;-68
2024/04/16 15:10:36;;;;;;;;;;;;;;;10.14;59.52;99536.00;4378107;27;19938;-68
2024/04/16 15:12:40;;;;;;;;;;;;;;;10.15;59.76;99537.66;4378104;27;20262;-68
2024/04/16 15:14:41;;;;;;;;;;;;;;;10.16;59.64;99533.13;4381110;26;19931;-70
2024/04/16 15:16:54;;;;;;;;;;;;;;;10.17;59.63;99530.22;4376709;27;19935;-68
2024/04/16 15:18:57;;;;;;;;;;;;;;;10.16;59.44;99533.94;4379362;27;19946;-70
2024/04/16 15:21:01;;;;;;;;;;;;;;;10.18;59.58;99539.13;4379017;26;19958;-69
2024/04/16 15:23:02;;;;;;;;;;;;;;;10.18;59.68;99536.44;4375667;27;20380;-69
2024/04/16 15:25:07;;;;;;;;;;;;;;;10.18;59.62;99536.44;4377949;26;19930;-69
2024/04/16 15:27:08;;;;;;;;;;;;;;;10.18;59.24;99537.25;4378771;26;20272;-68
2024/04/16 15:29:12;;;;;;;;;;;;;;;10.19;59.47;99538.94;4379590;26;19938;-68
2024/04/16 15:31:13;;;;;;;;;;;;;;;10.20;59.51;99546.00;4379828;26;20395;-67
2024/04/16 15:33:17;;;;;;;;;;;;;;;10.21;59.47;99539.53;4376945;26;19935;-68
2024/04/16 15:35:21;;;;;;;;;;;;;;;10.22;59.18;99540.38;4379559;26;20408;-68
2024/04/16 15:37:24;;;;;;;;;;;;;;;10.22;59.34;99540.38;4378862;27;19959;-67
2024/04/16 15:39:25;;;;;;;;;;;;;;;10.22;59.40;99538.53;4377181;27;19931;-67
2024/04/16 15:41:29;;;;;;;;;;;;;;;10.24;59.38;99543.72;4379249;26;19942;-67
2024/04/16 15:43:30;;;;;;;;;;;;;;;10.24;59.36;99544.53;4379755;26;19973;-67
2024/04/16 15:45:33;;;;;;;;;;;;;;;10.27;59.23;99548.69;4398042;26;20152;-67
2024/04/16 15:47:34;;;;;;;;;;;;;;;10.26;58.94;99547.03;4406909;26;19934;-67
2024/04/16 15:49:38;;;;;;;;;;;;;;;10.27;59.23;99543.31;4404781;26;19941;-67
2024/04/16 15:51:42;;;;;;;;;;;;;;;10.27;58.95;99546.81;4406212;26;20677;-68
2024/04/16 15:53:45;;;;;;;;;;;;;;;10.27;58.86;99546.00;4406501;26;20316;-67
2024/04/16 15:55:46;;;;;;;;;;;;;;;10.29;58.90;99554.72;4407698;26;20004;-68
2024/04/16 15:57:50;;;;;;;;;;;;;;;10.28;58.96;99553.91;4405735;26;20375;-67
2024/04/16 15:59:51;;;;;;;;;;;;;;;10.29;58.84;99554.72;4407789;26;19930;-68
2024/04/16 16:01:55;;;;;;;;;;;;;;;10.30;58.87;99556.38;4405015;26;19930;-68
2024/04/16 16:03:56;;;;;;;;;;;;;;;10.30;59.01;99556.38;4406021;26;20272;-67
2024/04/16 16:06:00;;;;;;;;;;;;;;;10.30;58.96;99556.38;4406479;26;19945;-67
2024/04/16 16:08:04;;;;;;;;;;;;;;;10.31;59.09;99558.03;4406446;26;20379;-69
2024/04/16 16:10:08;;;;;;;;;;;;;;;10.31;58.98;99558.03;4406009;26;19942;-67
2024/04/16 16:12:09;;;;;;;;;;;;;;;10.32;58.73;99561.59;4409959;26;19937;-68
2024/04/16 16:14:13;;;;;;;;;;;;;;;10.32;58.86;99558.88;4405845;26;19930;-68
2024/04/16 16:16:14;;;;;;;;;;;;;;;10.33;58.67;99558.72;4405791;26;19937;-69
2024/04/16 16:18:18;;;;;;;;;;;;;;;10.33;58.90;99565.94;4406294;26;19930;-67
2024/04/16 16:20:19;;;;;;;;;;;;;;;10.34;58.81;99567.63;4405296;26;20026;-68
2024/04/16 16:22:23;;;;;;;;;;;;;;;10.32;58.77;99559.69;4406373;26;20364;-68
2024/04/16 16:24:26;;;;;;;;;;;;;;;10.34;58.82;99573.03;4406358;26;19930;-68
2024/04/16 16:26:30;;;;;;;;;;;;;;;10.33;58.98;99574.91;4406106;26;19954;-69
2024/04/16 16:28:31;;;;;;;;;;;;;;;10.34;58.83;99578.41;4407465;26;19930;-68
2024/04/16 16:30:35;;;;;;;;;;;;;;;10.34;58.77;99583.81;4406781;26;20312;-68
2024/04/16 16:32:36;;;;;;;;;;;;;;;10.34;58.92;99578.41;4406286;26;19942;-69
2024/04/16 16:34:40;;;;;;;;;;;;;;;10.34;58.89;99592.75;4407741;26;20056;-68
2024/04/16 16:36:41;;;;;;;;;;;;;;;10.34;58.93;99592.75;4405892;26;19942;-68
2024/04/16 16:38:44;;;;;;;;;;;;;;;10.35;58.80;99588.19;4407123;26;19930;-68
2024/04/16 16:40:48;;;;;;;;;;;;;;;10.35;58.94;99597.13;4409263;26;19931;-68
2024/04/16 16:42:53;;;;;;;;;;;;;;;10.35;59.13;99607.09;4409485;26;19986;-68
2024/04/16 16:44:54;;;;;;;;;;;;;;;10.35;59.29;99615.19;4409136;26;19966;-68
2024/04/16 16:46:59;;;;;;;;;;;;;;;10.33;59.25;99618.09;4411470;26;19929;-69
2024/04/16 16:49:00;;;;;;;;;;;;;;;10.33;59.70;99625.34;4407637;26;19931;-69
2024/04/16 16:51:04;;;;;;;;;;;;;;;10.30;60.14;99626.56;4385481;26;20446;-70
2024/04/16 16:53:05;;;;;;;;;;;;;;;10.27;60.37;99625.09;4411859;26;20370;-67
2024/04/16 16:55:09;;;;;;;;;;;;;;;10.26;60.75;99625.28;4409733;26;19931;-68
2024/04/16 16:57:13;;;;;;;;;;;;;;;10.24;61.00;99622.78;4408599;26;19937;-68
2024/04/16 16:59:18;;;;;;;;;;;;;;;10.22;61.44;99621.31;4407287;26;20288;-67
2024/04/16 17:01:19;;;;;;;;;;;;;;;10.20;61.71;99628.78;4391654;26;19990;-68
2024/04/16 17:03:24;;;;;;;;;;;;;;;10.17;61.77;99632.75;4409229;26;19930;-68
2024/04/16 17:05:26;;;;;;;;;;;;;;;10.16;61.74;99638.34;4409972;26;19930;-68
2024/04/16 17:07:30;;;;;;;;;;;;;;;10.12;62.35;99645.97;4379793;27;19938;-67
2024/04/16 17:09:31;;;;;;;;;;;;;;;10.09;63.08;99640.97;4408260;26;19930;-69
2024/04/16 17:11:34;;;;;;;;;;;;;;;10.06;63.85;99636.00;4407616;26;19930;-67
2024/04/16 17:13:38;;;;;;;;;;;;;;;10.03;63.85;99636.38;4408314;26;20009;-68
2024/04/16 17:15:44;;;;;;;;;;;;;;;10.00;64.69;99642.19;4406026;26;19930;-68
2024/04/16 17:17:45;;;;;;;;;;;;;;;9.96;65.35;99649.84;4402924;26;20433;-68
2024/04/16 17:19:48;;;;;;;;;;;;;;;9.92;65.83;99640.47;4404730;26;19930;-68
2024/04/16 17:21:49;;;;;;;;;;;;;;;9.89;66.30;99636.34;4406276;26;20335;-68
2024/04/16 17:23:53;;;;;;;;;;;;;;;9.87;66.39;99641.13;4405263;26;19934;-69
2024/04/16 17:25:54;;;;;;;;;;;;;;;9.86;66.93;99642.13;4407945;26;20402;-68
2024/04/16 17:27:58;;;;;;;;;;;;;;;9.85;66.96;99653.94;4407188;26;19941;-67
2024/04/16 17:30:02;;;;;;;;;;;;;;;9.83;67.62;99653.31;4409485;26;19937;-67
2024/04/16 17:32:05;;;;;;;;;;;;;;;9.81;68.29;99660.78;4407851;26;20876;-68
2024/04/16 17:34:06;;;;;;;;;;;;;;;9.79;68.52;99662.81;4408208;26;19930;-67
2024/04/16 17:36:10;;;;;;;;;;;;;;;9.77;68.40;99662.19;4408536;26;20360;-68
2024/04/16 17:38:11;;;;;;;;;;;;;;;9.73;68.85;99666.31;4408264;26;19942;-69
2024/04/16 17:40:17;;;;;;;;;;;;;;;9.70;69.01;99662.16;4407485;26;19930;-67
2024/04/16 17:42:18;;;;;;;;;;;;;;;9.69;69.16;99665.88;4391984;26;20014;-68
2024/04/16 17:44:22;;;;;;;;;;;;;;;9.68;69.11;99669.59;4407752;26;19934;-68
2024/04/16 17:46:25;;;;;;;;;;;;;;;9.67;69.29;99678.75;4405157;26;20594;-68
2024/04/16 17:48:29;;;;;;;;;;;;;;;9.65;69.56;99678.09;4406044;26;20309;-67
2024/04/16 17:50:30;;;;;;;;;;;;;;;9.63;69.97;99682.84;4405624;26;19930;-68
2024/04/16 17:52:34;;;;;;;;;;;;;;;9.61;70.41;99684.06;4408456;26;19930;-68
2024/04/16 17:54:34;;;;;;;;;;;;;;;9.59;70.67;99686.13;4408749;26;19939;-67
2024/04/16 17:56:38;;;;;;;;;;;;;;;9.56;70.86;99687.34;4407575;26;19943;-67
2024/04/16 17:58:39;;;;;;;;;;;;;;;9.52;71.15;99691.47;4407567;26;20020;-67
2024/04/16 18:00:44;;;;;;;;;;;;;;;9.50;71.55;99697.06;4377222;26;19931;-67
2024/04/16 18:02:48;;;;;;;;;;;;;;;9.47;71.50;99697.47;4405412;26;19937;-66
2024/04/16 18:04:52;;;;;;;;;;;;;;;9.46;71.62;99711.94;4402237;26;19930;-66
2024/04/16 18:06:52;;;;;;;;;;;;;;;9.45;71.93;99710.31;4409616;26;19934;-67
2024/04/16 18:08:56;;;;;;;;;;;;;;;9.43;71.40;99711.50;4405360;26;20004;-68
2024/04/16 18:10:57;;;;;;;;;;;;;;;9.42;71.33;99707.16;4406746;26;19937;-67
2024/04/16 18:13:01;;;;;;;;;;;;;;;9.40;70.83;99717.28;4375318;26;19931;-67
2024/04/16 18:15:02;;;;;;;;;;;;;;;9.37;70.97;99719.38;4407281;26;20375;-68
2024/04/16 18:17:06;;;;;;;;;;;;;;;9.34;70.55;99727.84;4361005;27;19931;-67
2024/04/16 18:19:09;;;;;;;;;;;;;;;9.31;70.58;99733.59;4405594;26;19936;-66
2024/04/16 18:21:13;;;;;;;;;;;;;;;9.31;70.60;99743.53;4405057;26;19931;-68
2024/04/16 18:23:14;;;;;;;;;;;;;;;9.29;70.63;99740.22;4376080;27;20000;-65
2024/04/16 18:25:18;;;;;;;;;;;;;;;9.27;70.72;99735.00;4405168;26;20412;-65
2024/04/16 18:27:19;;;;;;;;;;;;;;;9.26;70.57;99745.97;4407295;26;19929;-66
2024/04/16 18:29:23;;;;;;;;;;;;;;;9.24;70.70;99751.56;4405835;26;20695;-66
2024/04/16 18:31:25;;;;;;;;;;;;;;;9.21;70.95;99751.94;4407574;26;20374;-68
2024/04/16 18:33:28;;;;;;;;;;;;;;;9.19;70.60;99762.91;4406327;26;19999;-66
2024/04/16 18:35:34;;;;;;;;;;;;;;;9.19;71.00;99767.47;4390039;26;20279;-67
2024/04/16 18:37:38;;;;;;;;;;;;;;;9.17;71.08;99769.53;4406001;26;19934;-67
2024/04/16 18:39:39;;;;;;;;;;;;;;;9.15;71.17;99766.19;4406456;26;19966;-67
2024/04/16 18:41:43;;;;;;;;;;;;;;;9.14;70.78;99781.53;4406310;26;20375;-66
2024/04/16 18:43:44;;;;;;;;;;;;;;;9.14;71.06;99784.22;4408983;26;20275;-65
2024/04/16 18:45:48;;;;;;;;;;;;;;;9.12;71.25;99786.28;4410119;26;19942;-67
2024/04/16 18:47:49;;;;;;;;;;;;;;;9.12;70.79;99788.13;4408160;26;19942;-68
2024/04/16 18:49:54;;;;;;;;;;;;;;;9.10;70.96;99777.53;4405207;26;20004;-67
2024/04/16 18:51:58;;;;;;;;;;;;;;;9.09;70.60;99783.97;4406999;26;19934;-67
2024/04/16 18:54:02;;;;;;;;;;;;;;;9.07;70.93;99788.69;4408365;26;19930;-67
2024/04/16 18:56:10;;;;;;;;;;;;;;;9.05;70.94;99804.22;4406462;26;19931;-68
2024/04/16 18:58:15;;;;;;;;;;;;;;;9.04;70.73;99799.84;4406509;26;20288;-68
2024/04/16 19:00:16;;;;;;;;;;;;;;;9.03;71.12;99798.19;4404891;26;20279;-68
2024/04/16 19:02:20;;;;;;;;;;;;;;;9.01;71.29;99800.22;4404525;26;19930;-67
2024/04/16 19:04:21;;;;;;;;;;;;;;;8.99;71.49;99799.56;4379323;27;19930;-68
2024/04/16 19:06:25;;;;;;;;;;;;;;;8.97;71.32;99797.06;4409317;26;19940;-67
2024/04/16 19:08:28;;;;;;;;;;;;;;;8.97;71.35;99798.94;4404442;26;19931;-67
2024/04/16 19:10:32;;;;;;;;;;;;;;;8.95;71.31;99806.34;4407867;26;19937;-67
2024/04/16 19:12:33;;;;;;;;;;;;;;;8.93;71.49;99800.34;4406818;26;19930;-68